createdAt,value
2023-02-21T00:00:17.078Z,67.80
2023-02-21T00:02:09.625Z,68.00
2023-02-21T00:04:00.824Z,67.80
2023-02-21T00:05:51.832Z,67.90
2023-02-21T00:07:43.532Z,67.90
2023-02-21T00:09:34.562Z,67.80
2023-02-21T00:11:25.538Z,67.80
2023-02-21T00:13:16.503Z,67.80
2023-02-21T00:15:07.391Z,67.90
2023-02-21T00:16:59.554Z,67.90
2023-02-21T00:18:53.577Z,67.90
2023-02-21T00:20:44.622Z,68.00
2023-02-21T00:22:35.653Z,67.90
2023-02-21T00:24:27.008Z,67.90
2023-02-21T00:26:17.921Z,68.80
2023-02-21T00:28:08.805Z,68.00
2023-02-21T00:29:59.673Z,68.00
2023-02-21T00:31:50.418Z,68.00
2023-02-21T00:33:42.460Z,68.00
2023-02-21T00:35:33.344Z,67.90
2023-02-21T00:37:24.372Z,67.90
2023-02-21T00:39:14.986Z,68.00
2023-02-21T00:41:06.838Z,68.00
2023-02-21T00:42:58.120Z,68.00
2023-02-21T00:44:49.053Z,68.10
2023-02-21T00:46:40.405Z,68.10
2023-02-21T00:48:30.903Z,68.10
2023-02-21T00:50:24.136Z,68.10
2023-02-21T00:52:15.107Z,68.00
2023-02-21T00:54:05.984Z,67.90
2023-02-21T00:55:56.884Z,68.00
2023-02-21T00:57:47.813Z,68.00
2023-02-21T00:59:38.643Z,67.90
2023-02-21T01:01:29.676Z,67.90
2023-02-21T01:03:21.099Z,67.90
2023-02-21T01:05:12.011Z,67.90
2023-02-21T01:07:04.177Z,68.00
2023-02-21T01:08:55.126Z,68.10
2023-02-21T01:10:46.113Z,68.10
2023-02-21T01:12:37.185Z,68.20
2023-02-21T01:14:28.558Z,68.10
2023-02-21T01:16:19.492Z,68.10
2023-02-21T01:18:10.236Z,68.10
2023-02-21T01:20:01.163Z,68.20
2023-02-21T01:21:51.950Z,68.20
2023-02-21T01:23:44.853Z,68.10
2023-02-21T01:25:35.414Z,68.10
2023-02-21T01:27:26.370Z,68.30
2023-02-21T01:29:17.467Z,68.00
2023-02-21T01:31:08.451Z,68.10
2023-02-21T01:32:59.400Z,68.10
2023-02-21T01:34:50.297Z,68.20
2023-02-21T01:36:41.125Z,68.00
2023-02-21T01:38:32.010Z,68.20
2023-02-21T01:40:25.989Z,68.10
2023-02-21T01:42:16.859Z,68.10
2023-02-21T01:44:23.151Z,68.20
2023-02-21T01:46:17.317Z,68.20
2023-02-21T01:48:08.133Z,68.10
2023-02-21T01:50:00.655Z,68.10
2023-02-21T01:51:57.647Z,68.00
2023-02-21T01:53:48.547Z,68.10
2023-02-21T01:55:42.581Z,68.00
2023-02-21T01:57:33.968Z,68.00
2023-02-21T01:59:24.749Z,68.10
2023-02-21T02:01:16.265Z,68.00
2023-02-21T02:03:14.473Z,68.00
2023-02-21T02:05:07.136Z,68.00
2023-02-21T02:06:58.565Z,68.00
2023-02-21T02:08:51.817Z,68.00
2023-02-21T02:10:45.582Z,68.00
2023-02-21T02:12:58.712Z,68.00
2023-02-21T02:14:56.890Z,68.00
2023-02-21T02:16:37.626Z,68.00
2023-02-21T02:18:47.399Z,68.10
2023-02-21T02:21:06.364Z,68.00
2023-02-21T02:23:10.273Z,68.00
2023-02-21T02:25:21.378Z,68.00
2023-02-21T02:27:34.780Z,68.00
2023-02-21T02:29:38.671Z,68.10
2023-02-21T02:31:39.661Z,68.00
2023-02-21T02:34:01.302Z,68.00
2023-02-21T02:35:42.796Z,68.80
2023-02-21T02:37:24.683Z,68.00
2023-02-21T02:39:11.976Z,68.00
2023-02-21T02:40:58.008Z,68.00
2023-02-21T02:42:49.012Z,68.00
2023-02-21T02:44:30.628Z,68.00
2023-02-21T02:46:12.198Z,68.00
2023-02-21T02:47:51.386Z,68.00
2023-02-21T02:49:30.473Z,68.00
2023-02-21T02:51:10.367Z,68.00
2023-02-21T02:52:52.873Z,68.80
2023-02-21T02:54:26.171Z,68.10
2023-02-21T02:56:02.220Z,68.00
2023-02-21T02:57:41.052Z,68.00
2023-02-21T02:59:21.238Z,68.00
2023-02-21T03:01:14.625Z,68.10
2023-02-21T03:03:09.321Z,68.20
2023-02-21T03:05:03.733Z,68.30
2023-02-21T03:07:00.283Z,68.10
2023-02-21T03:08:43.585Z,68.10
2023-02-21T03:10:27.097Z,68.00
2023-02-21T03:12:08.893Z,68.20
2023-02-21T03:13:49.996Z,68.10
2023-02-21T03:15:33.385Z,68.20
2023-02-21T03:17:14.393Z,68.30
2023-02-21T03:18:51.971Z,68.20
2023-02-21T03:20:28.139Z,68.20
2023-02-21T03:22:08.026Z,68.10
2023-02-21T03:23:44.554Z,68.10
2023-02-21T03:25:20.384Z,68.10
2023-02-21T03:27:00.549Z,68.10
2023-02-21T03:28:53.363Z,68.10
2023-02-21T03:30:27.907Z,68.00
2023-02-21T03:32:10.928Z,68.10
2023-02-21T03:33:44.718Z,68.20
2023-02-21T03:35:19.261Z,68.90
2023-02-21T03:36:53.064Z,68.20
2023-02-21T03:38:29.610Z,68.20
2023-02-21T03:40:06.246Z,68.20
2023-02-21T03:41:40.600Z,68.30
2023-02-21T03:43:13.915Z,68.20
2023-02-21T03:44:57.763Z,68.30
2023-02-21T03:46:30.168Z,68.30
2023-02-21T03:48:04.580Z,68.30
2023-02-21T03:49:39.525Z,68.40
2023-02-21T03:51:14.277Z,68.40
2023-02-21T03:52:47.705Z,68.40
2023-02-21T03:54:22.402Z,68.40
2023-02-21T03:55:57.665Z,68.50
2023-02-21T03:57:39.600Z,68.50
2023-02-21T03:59:11.956Z,68.50
2023-02-21T04:00:45.171Z,68.50
2023-02-21T04:02:19.076Z,68.60
2023-02-21T04:03:52.482Z,68.60
2023-02-21T04:05:25.726Z,68.60
2023-02-21T04:07:00.193Z,68.60
2023-02-21T04:08:32.725Z,68.60
2023-02-21T04:10:07.858Z,68.60
2023-02-21T04:11:48.900Z,68.60
2023-02-21T04:13:24.369Z,68.60
2023-02-21T04:14:58.646Z,68.60
2023-02-21T04:16:32.206Z,68.60
2023-02-21T04:18:04.685Z,68.60
2023-02-21T04:19:38.163Z,68.50
2023-02-21T04:21:12.706Z,68.50
2023-02-21T04:22:51.799Z,68.50
2023-02-21T04:24:32.465Z,68.40
2023-02-21T04:26:06.247Z,68.40
2023-02-21T04:27:52.594Z,68.30
2023-02-21T04:29:26.373Z,68.20
2023-02-21T04:30:59.504Z,68.10
2023-02-21T04:32:32.713Z,68.10
2023-02-21T04:34:12.401Z,68.10
2023-02-21T04:35:50.453Z,68.10
2023-02-21T04:37:40.781Z,68.10
2023-02-21T04:39:14.805Z,68.10
2023-02-21T04:40:48.009Z,68.10
2023-02-21T04:42:22.790Z,68.10
2023-02-21T04:43:56.423Z,68.10
2023-02-21T04:45:29.257Z,68.10
2023-02-21T04:47:02.559Z,68.10
2023-02-21T04:48:35.816Z,68.10
2023-02-21T04:50:09.986Z,68.10
2023-02-21T04:51:43.531Z,68.20
2023-02-21T04:53:16.963Z,68.20
2023-02-21T04:54:50.118Z,68.30
2023-02-21T04:56:27.348Z,68.20
2023-02-21T04:58:01.915Z,68.30
2023-02-21T04:59:35.037Z,68.30
2023-02-21T05:01:08.444Z,68.30
2023-02-21T05:02:44.092Z,68.40
2023-02-21T05:04:17.202Z,68.40
2023-02-21T05:05:50.942Z,68.40
2023-02-21T05:07:23.282Z,68.50
2023-02-21T05:08:57.371Z,68.50
2023-02-21T05:10:44.598Z,68.60
2023-02-21T05:12:18.243Z,68.60
2023-02-21T05:13:53.004Z,68.60
2023-02-21T05:15:26.567Z,68.80
2023-02-21T05:16:59.626Z,68.60
2023-02-21T05:18:34.587Z,68.70
2023-02-21T05:20:11.564Z,68.90
2023-02-21T05:21:44.713Z,68.90
2023-02-21T05:23:18.826Z,68.90
2023-02-21T05:24:52.061Z,68.90
2023-02-21T05:26:29.770Z,68.90
2023-02-21T05:28:02.873Z,68.90
2023-02-21T05:29:36.277Z,69.70
2023-02-21T05:31:09.622Z,68.80
2023-02-21T05:32:43.484Z,68.80
2023-02-21T05:34:19.722Z,68.70
2023-02-21T05:35:52.797Z,68.80
2023-02-21T05:37:26.067Z,68.80
2023-02-21T05:38:58.510Z,68.80
2023-02-21T05:40:31.701Z,68.80
2023-02-21T05:42:04.133Z,68.80
2023-02-21T05:43:37.227Z,68.80
2023-02-21T05:45:12.716Z,68.80
2023-02-21T05:46:46.010Z,68.80
2023-02-21T05:48:19.145Z,68.70
2023-02-21T05:49:52.322Z,68.70
2023-02-21T05:51:27.467Z,68.70
2023-02-21T05:53:02.524Z,68.80
2023-02-21T05:54:35.766Z,68.80
2023-02-21T05:56:10.610Z,68.70
2023-02-21T05:57:43.652Z,68.70
2023-02-21T05:59:19.696Z,68.90
2023-02-21T06:00:53.155Z,68.70
2023-02-21T06:02:26.351Z,68.60
2023-02-21T06:03:59.561Z,69.40
2023-02-21T06:05:32.061Z,68.40
2023-02-21T06:07:05.673Z,68.40
2023-02-21T06:08:47.867Z,68.40
2023-02-21T06:10:22.038Z,68.40
2023-02-21T06:11:59.827Z,68.40
2023-02-21T06:13:33.701Z,68.20
2023-02-21T06:15:08.642Z,68.30
2023-02-21T06:16:43.739Z,68.30
2023-02-21T06:18:18.105Z,68.30
2023-02-21T06:19:51.320Z,68.40
2023-02-21T06:21:24.856Z,68.50
2023-02-21T06:22:57.934Z,68.40
2023-02-21T06:24:31.157Z,68.40
2023-02-21T06:26:04.551Z,68.40
2023-02-21T06:27:38.546Z,68.40
2023-02-21T06:29:12.602Z,68.50
2023-02-21T06:30:46.277Z,68.50
2023-02-21T06:32:20.828Z,68.50
2023-02-21T06:33:54.408Z,68.50
2023-02-21T06:35:27.766Z,68.50
2023-02-21T06:37:01.091Z,68.50
2023-02-21T06:38:34.354Z,68.60
2023-02-21T06:40:08.477Z,68.60
2023-02-21T06:41:41.543Z,68.60
2023-02-21T06:43:15.867Z,68.60
2023-02-21T06:44:50.569Z,68.70
2023-02-21T06:46:27.433Z,68.70
2023-02-21T06:48:01.912Z,68.60
2023-02-21T06:49:35.321Z,68.60
2023-02-21T06:51:11.185Z,68.60
2023-02-21T06:52:44.720Z,69.60
2023-02-21T06:54:17.957Z,68.70
2023-02-21T06:55:51.109Z,68.60
2023-02-21T06:57:24.288Z,68.60
2023-02-21T06:58:57.717Z,68.60
2023-02-21T07:00:31.051Z,68.50
2023-02-21T07:02:04.688Z,68.60
2023-02-21T07:03:44.232Z,68.60
2023-02-21T07:05:17.492Z,68.70
2023-02-21T07:06:50.931Z,68.70
2023-02-21T07:08:25.781Z,68.70
2023-02-21T07:09:58.914Z,68.60
2023-02-21T07:11:34.245Z,68.80
2023-02-21T07:13:07.407Z,68.70
2023-02-21T07:14:40.692Z,68.60
2023-02-21T07:16:14.391Z,68.70
2023-02-21T07:17:47.528Z,68.70
2023-02-21T07:19:22.202Z,68.70
2023-02-21T07:20:55.440Z,68.70
2023-02-21T07:22:28.509Z,68.90
2023-02-21T07:24:01.695Z,68.90
2023-02-21T07:25:34.800Z,68.80
2023-02-21T07:27:08.020Z,68.90
2023-02-21T07:28:41.632Z,68.90
2023-02-21T07:30:15.925Z,69.00
2023-02-21T07:31:49.172Z,69.00
2023-02-21T07:33:22.393Z,68.90
2023-02-21T07:34:56.903Z,68.90
2023-02-21T07:36:30.214Z,68.90
2023-02-21T07:38:03.301Z,68.90
2023-02-21T07:39:36.729Z,68.80
2023-02-21T07:41:09.784Z,68.90
2023-02-21T07:42:44.528Z,68.90
2023-02-21T07:44:17.599Z,68.90
2023-02-21T07:45:50.768Z,68.80
2023-02-21T07:47:24.560Z,68.90
2023-02-21T07:48:58.064Z,68.90
2023-02-21T07:50:32.481Z,68.90
2023-02-21T07:52:05.847Z,68.80
2023-02-21T07:53:39.040Z,68.80
2023-02-21T07:55:13.434Z,68.80
2023-02-21T07:56:47.809Z,68.80
2023-02-21T07:58:21.504Z,68.90
2023-02-21T07:59:55.180Z,68.80
2023-02-21T08:01:28.693Z,68.90
2023-02-21T08:03:01.988Z,68.90
2023-02-21T08:04:35.223Z,68.90
2023-02-21T08:06:11.366Z,68.90
2023-02-21T08:07:45.185Z,69.00
2023-02-21T08:09:18.631Z,69.00
2023-02-21T08:10:52.073Z,69.10
2023-02-21T08:12:25.132Z,69.20
2023-02-21T08:13:58.252Z,69.10
2023-02-21T08:15:31.372Z,69.00
2023-02-21T08:17:04.742Z,69.00
2023-02-21T08:18:37.857Z,68.90
2023-02-21T08:20:11.668Z,69.70
2023-02-21T08:21:47.677Z,68.90
2023-02-21T08:23:21.513Z,69.00
2023-02-21T08:24:54.617Z,69.00
2023-02-21T08:26:27.733Z,68.90
2023-02-21T08:28:00.855Z,68.90
2023-02-21T08:29:34.062Z,68.90
2023-02-21T08:31:08.312Z,68.80
2023-02-21T08:32:41.846Z,68.80
2023-02-21T08:34:15.668Z,68.70
2023-02-21T08:35:48.959Z,68.80
2023-02-21T08:37:23.767Z,68.70
2023-02-21T08:38:56.886Z,68.60
2023-02-21T08:40:31.494Z,68.70
2023-02-21T08:42:04.954Z,68.60
2023-02-21T08:43:38.667Z,68.80
2023-02-21T08:45:17.924Z,68.50
2023-02-21T08:46:51.540Z,68.50
2023-02-21T08:48:25.101Z,68.50
2023-02-21T08:49:58.445Z,68.50
2023-02-21T08:51:33.723Z,68.50
2023-02-21T08:53:08.628Z,68.50
2023-02-21T08:54:41.842Z,68.50
2023-02-21T08:56:20.416Z,68.50
2023-02-21T08:57:55.776Z,68.50
2023-02-21T08:59:33.599Z,68.50
2023-02-21T09:01:07.149Z,68.50
2023-02-21T09:02:41.274Z,68.60
2023-02-21T09:04:14.424Z,68.60
2023-02-21T09:05:47.586Z,68.60
2023-02-21T09:07:23.205Z,68.50
2023-02-21T09:08:57.861Z,68.30
2023-02-21T09:10:34.331Z,68.30
2023-02-21T09:12:08.520Z,68.30
2023-02-21T09:13:41.850Z,68.20
2023-02-21T09:15:17.536Z,68.20
2023-02-21T09:16:50.771Z,68.20
2023-02-21T09:18:24.548Z,68.20
2023-02-21T09:19:57.608Z,68.10
2023-02-21T09:21:30.689Z,68.20
2023-02-21T09:23:03.792Z,68.20
2023-02-21T09:24:39.381Z,68.30
2023-02-21T09:26:12.543Z,68.40
2023-02-21T09:27:46.836Z,68.40
2023-02-21T09:29:20.399Z,68.30
2023-02-21T09:30:53.600Z,68.20
2023-02-21T09:32:28.725Z,68.10
2023-02-21T09:34:01.928Z,68.10
2023-02-21T09:35:35.312Z,68.10
2023-02-21T09:37:08.474Z,68.10
2023-02-21T09:38:42.291Z,68.10
2023-02-21T09:40:33.557Z,68.20
2023-02-21T09:42:07.000Z,69.00
2023-02-21T09:43:44.347Z,68.20
2023-02-21T09:45:19.791Z,68.20
2023-02-21T09:46:58.174Z,68.30
2023-02-21T09:48:32.676Z,68.40
2023-02-21T09:50:13.828Z,68.50
2023-02-21T09:51:47.862Z,68.50
2023-02-21T09:53:28.317Z,68.50
2023-02-21T09:55:08.539Z,68.60
2023-02-21T09:56:43.320Z,68.50
2023-02-21T09:58:19.492Z,68.60
2023-02-21T09:59:52.741Z,68.50
2023-02-21T10:01:44.818Z,68.60
2023-02-21T10:03:40.199Z,68.70
2023-02-21T10:05:29.771Z,68.60
2023-02-21T10:07:12.121Z,68.60
2023-02-21T10:08:55.366Z,68.60
2023-02-21T10:10:37.016Z,68.60
2023-02-21T10:12:27.227Z,68.70
2023-02-21T10:14:14.059Z,69.60
2023-02-21T10:15:55.238Z,68.70
2023-02-21T10:17:36.404Z,68.70
2023-02-21T10:19:20.282Z,68.60
2023-02-21T10:20:57.717Z,68.70
2023-02-21T10:22:38.208Z,68.60
2023-02-21T10:24:14.922Z,68.60
2023-02-21T10:25:49.124Z,68.60
2023-02-21T10:27:27.427Z,68.60
2023-02-21T10:29:01.929Z,68.70
2023-02-21T10:30:40.739Z,68.80
2023-02-21T10:32:15.317Z,68.60
2023-02-21T10:33:48.716Z,68.70
2023-02-21T10:35:21.961Z,68.70
2023-02-21T10:36:58.204Z,68.60
2023-02-21T10:38:31.382Z,68.70
2023-02-21T10:40:23.337Z,68.70
2023-02-21T10:41:58.284Z,68.80
2023-02-21T10:43:37.670Z,68.80
2023-02-21T10:45:13.985Z,69.00
2023-02-21T10:46:59.732Z,68.70
2023-02-21T10:48:37.111Z,68.80
2023-02-21T10:50:12.282Z,68.70
2023-02-21T10:51:45.785Z,68.80
2023-02-21T10:53:30.590Z,68.80
2023-02-21T10:55:13.269Z,68.80
2023-02-21T10:56:53.091Z,68.80
2023-02-21T10:58:29.189Z,68.80
2023-02-21T11:00:10.077Z,68.80
2023-02-21T11:01:46.526Z,68.70
2023-02-21T11:03:27.580Z,68.60
2023-02-21T11:05:13.927Z,68.70
2023-02-21T11:06:51.787Z,68.70
2023-02-21T11:08:39.015Z,68.60
2023-02-21T11:10:43.938Z,68.80
2023-02-21T11:12:25.449Z,68.80
2023-02-21T11:14:22.912Z,68.70
2023-02-21T11:16:12.402Z,68.70
2023-02-21T11:17:46.950Z,68.60
2023-02-21T11:19:20.032Z,69.30
2023-02-21T11:20:54.788Z,68.50
2023-02-21T11:22:39.240Z,68.50
2023-02-21T11:24:13.491Z,68.50
2023-02-21T11:25:47.397Z,68.50
2023-02-21T11:27:20.943Z,68.50
2023-02-21T11:28:54.801Z,69.20
2023-02-21T11:30:28.117Z,68.40
2023-02-21T11:32:14.000Z,68.40
2023-02-21T11:33:56.303Z,68.30
2023-02-21T11:35:35.048Z,69.10
2023-02-21T11:37:08.278Z,68.30
2023-02-21T11:38:45.900Z,68.20
2023-02-21T11:40:35.509Z,68.10
2023-02-21T11:42:28.854Z,68.10
2023-02-21T11:44:02.139Z,68.00
2023-02-21T11:45:40.722Z,68.20
2023-02-21T11:47:22.932Z,68.20
2023-02-21T11:49:07.472Z,68.10
2023-02-21T11:50:49.500Z,68.10
2023-02-21T11:52:29.448Z,68.20
2023-02-21T11:54:03.754Z,68.10
2023-02-21T11:55:38.749Z,68.10
2023-02-21T11:57:23.170Z,68.00
2023-02-21T11:59:08.306Z,67.90
2023-02-21T12:01:01.835Z,67.70
2023-02-21T12:03:32.632Z,67.70
2023-02-21T12:05:26.341Z,67.50
2023-02-21T12:07:11.582Z,67.40
2023-02-21T12:08:52.301Z,67.50
2023-02-21T12:10:38.643Z,67.50
2023-02-21T12:12:33.877Z,67.50
2023-02-21T12:14:49.504Z,67.40
2023-02-21T12:16:42.982Z,67.40
2023-02-21T12:18:46.162Z,67.40
2023-02-21T12:20:55.237Z,67.30
2023-02-21T12:22:52.583Z,67.20
2023-02-21T12:24:57.118Z,67.10
2023-02-21T12:26:49.515Z,67.10
2023-02-21T12:28:41.769Z,67.10
2023-02-21T12:30:36.916Z,67.00
2023-02-21T12:32:36.908Z,67.10
2023-02-21T12:34:32.508Z,67.10
2023-02-21T12:36:27.422Z,67.00
2023-02-21T12:38:09.888Z,66.80
2023-02-21T12:40:04.854Z,66.80
2023-02-21T12:42:04.083Z,66.90
2023-02-21T12:43:57.690Z,66.80
2023-02-21T12:45:48.549Z,66.90
2023-02-21T12:47:30.461Z,66.80
2023-02-21T12:49:10.217Z,66.90
2023-02-21T12:50:51.974Z,67.00
2023-02-21T12:52:31.432Z,66.90
2023-02-21T12:54:09.712Z,66.90
2023-02-21T12:55:48.831Z,67.00
2023-02-21T12:57:32.076Z,66.90
2023-02-21T12:59:16.875Z,66.90
2023-02-21T13:00:59.693Z,66.90
2023-02-21T13:02:45.316Z,66.80
2023-02-21T13:04:36.267Z,66.80
2023-02-21T13:06:21.012Z,66.80
2023-02-21T13:08:02.440Z,66.80
2023-02-21T13:09:39.167Z,66.80
2023-02-21T13:11:18.578Z,66.80
2023-02-21T13:13:00.019Z,66.80
2023-02-21T13:14:41.257Z,66.80
2023-02-21T13:16:15.592Z,66.80
2023-02-21T13:18:01.341Z,66.90
2023-02-21T13:19:43.945Z,66.90
2023-02-21T13:21:34.736Z,67.10
2023-02-21T13:23:27.185Z,67.10
2023-02-21T13:25:36.059Z,67.20
2023-02-21T13:27:50.588Z,67.10
2023-02-21T13:29:29.374Z,67.90
2023-02-21T13:31:05.873Z,67.10
2023-02-21T13:32:41.108Z,67.10
2023-02-21T13:34:20.885Z,67.10
2023-02-21T13:35:57.230Z,67.10
2023-02-21T13:37:36.387Z,67.10
2023-02-21T13:39:16.598Z,67.10
2023-02-21T13:40:55.421Z,67.20
2023-02-21T13:42:31.428Z,67.10
2023-02-21T13:44:11.403Z,67.20
2023-02-21T13:45:45.615Z,67.20
2023-02-21T13:47:21.622Z,67.20
2023-02-21T13:49:47.736Z,67.20
2023-02-21T13:51:47.072Z,67.00
2023-02-21T13:53:23.742Z,66.90
2023-02-21T13:55:27.313Z,66.90
2023-02-21T13:57:04.475Z,66.90
2023-02-21T13:58:40.096Z,67.00
2023-02-21T14:00:52.194Z,66.80
2023-02-21T14:02:32.650Z,66.70
2023-02-21T14:05:01.467Z,66.70
2023-02-21T14:06:37.780Z,66.50
2023-02-21T14:08:15.794Z,66.50
2023-02-21T14:09:50.405Z,66.60
2023-02-21T14:11:28.810Z,66.70
2023-02-21T14:13:21.558Z,66.70
2023-02-21T14:15:07.701Z,66.70
2023-02-21T14:16:50.630Z,66.70
2023-02-21T14:18:30.237Z,66.70
2023-02-21T14:20:05.968Z,66.80
2023-02-21T14:21:45.788Z,66.80
2023-02-21T14:23:23.233Z,66.80
2023-02-21T14:25:16.900Z,66.80
2023-02-21T14:26:55.390Z,66.90
2023-02-21T14:28:52.057Z,66.90
2023-02-21T14:30:34.919Z,66.70
2023-02-21T14:32:36.694Z,66.70
2023-02-21T14:34:12.822Z,66.60
2023-02-21T14:35:57.748Z,67.40
2023-02-21T14:37:37.617Z,66.60
2023-02-21T14:39:11.016Z,66.50
2023-02-21T14:41:01.111Z,66.50
2023-02-21T14:43:04.746Z,66.50
2023-02-21T14:44:50.464Z,66.40
2023-02-21T14:46:51.586Z,66.50
2023-02-21T14:48:54.214Z,66.50
2023-02-21T14:50:43.184Z,66.40
2023-02-21T14:52:49.809Z,66.50
2023-02-21T14:54:59.990Z,66.50
2023-02-21T14:57:03.808Z,66.50
2023-02-21T14:59:26.215Z,66.50
2023-02-21T15:01:11.533Z,66.50
2023-02-21T15:02:53.999Z,66.50
2023-02-21T15:04:38.410Z,66.50
2023-02-21T15:06:19.113Z,66.50
2023-02-21T15:08:00.598Z,66.50
2023-02-21T15:09:34.028Z,66.50
2023-02-21T15:11:28.779Z,66.60
2023-02-21T15:13:06.684Z,66.50
2023-02-21T15:14:49.474Z,66.50
2023-02-21T15:16:22.856Z,66.70
2023-02-21T15:18:05.525Z,66.70
2023-02-21T15:19:38.783Z,66.70
2023-02-21T15:21:19.368Z,66.70
2023-02-21T15:23:03.302Z,66.70
2023-02-21T15:24:36.637Z,66.80
2023-02-21T15:26:21.781Z,66.80
2023-02-21T15:28:03.921Z,66.70
2023-02-21T15:29:37.253Z,66.80
2023-02-21T15:31:12.834Z,66.80
2023-02-21T15:32:56.159Z,66.80
2023-02-21T15:34:34.958Z,66.80
2023-02-21T15:36:17.615Z,66.80
2023-02-21T15:37:51.175Z,67.60
2023-02-21T15:39:30.983Z,66.60
2023-02-21T15:41:10.952Z,66.70
2023-02-21T15:42:46.235Z,66.70
2023-02-21T15:44:26.632Z,66.70
2023-02-21T15:46:04.991Z,66.70
2023-02-21T15:47:38.799Z,66.70
2023-02-21T15:49:21.348Z,66.60
2023-02-21T15:50:54.997Z,66.60
2023-02-21T15:52:35.438Z,66.60
2023-02-21T15:54:24.189Z,66.60
2023-02-21T15:56:19.976Z,66.60
2023-02-21T15:58:02.579Z,66.60
2023-02-21T15:59:37.384Z,66.50
2023-02-21T16:01:13.230Z,66.50
2023-02-21T16:02:46.525Z,66.30
2023-02-21T16:04:25.673Z,66.10
2023-02-21T16:06:17.956Z,65.90
2023-02-21T16:07:54.101Z,65.70
2023-02-21T16:09:31.344Z,65.70
2023-02-21T16:11:05.839Z,65.70
2023-02-21T16:12:43.419Z,66.50
2023-02-21T16:14:21.623Z,65.60
2023-02-21T16:16:01.226Z,65.60
2023-02-21T16:17:37.711Z,65.50
2023-02-21T16:19:11.340Z,65.50
2023-02-21T16:20:46.295Z,65.40
2023-02-21T16:22:30.802Z,65.30
2023-02-21T16:24:27.927Z,65.20
2023-02-21T16:26:04.565Z,65.10
2023-02-21T16:27:38.611Z,65.20
2023-02-21T16:29:11.632Z,65.30
2023-02-21T16:30:45.043Z,65.20
2023-02-21T16:32:22.388Z,65.20
2023-02-21T16:33:56.039Z,65.10
2023-02-21T16:35:29.897Z,65.30
2023-02-21T16:37:06.445Z,65.40
2023-02-21T16:38:39.589Z,65.30
2023-02-21T16:40:16.248Z,65.20
2023-02-21T16:41:49.719Z,65.10
2023-02-21T16:43:27.297Z,65.10
2023-02-21T16:45:00.560Z,65.20
2023-02-21T16:46:33.883Z,65.30
2023-02-21T16:48:09.055Z,65.60
2023-02-21T16:49:42.266Z,65.60
2023-02-21T16:51:15.755Z,65.60
2023-02-21T16:52:49.384Z,65.60
2023-02-21T16:54:22.493Z,65.60
2023-02-21T16:55:57.368Z,65.60
2023-02-21T16:57:30.344Z,65.60
2023-02-21T16:59:04.998Z,65.60
2023-02-21T17:00:38.139Z,65.60
2023-02-21T17:02:15.462Z,65.60
2023-02-21T17:03:50.725Z,65.60
2023-02-21T17:05:25.692Z,65.60
2023-02-21T17:07:03.508Z,65.60
2023-02-21T17:08:36.629Z,65.60
2023-02-21T17:10:10.716Z,66.00
2023-02-21T17:11:43.804Z,65.60
2023-02-21T17:13:16.937Z,65.60
2023-02-21T17:14:50.056Z,65.60
2023-02-21T17:16:23.155Z,65.60
2023-02-21T17:17:56.331Z,65.60
2023-02-21T17:19:30.696Z,65.60
2023-02-21T17:21:05.544Z,65.60
2023-02-21T17:22:38.600Z,65.60
2023-02-21T17:24:14.339Z,65.60
2023-02-21T17:25:47.438Z,65.60
2023-02-21T17:27:20.608Z,65.60
2023-02-21T17:28:53.725Z,65.60
2023-02-21T17:30:27.208Z,65.60
2023-02-21T17:32:06.770Z,65.50
2023-02-21T17:33:41.264Z,65.50
2023-02-21T17:35:16.538Z,65.50
2023-02-21T17:36:50.664Z,65.40
2023-02-21T17:38:23.976Z,65.50
2023-02-21T17:39:58.305Z,65.50
2023-02-21T17:41:31.530Z,65.50
2023-02-21T17:43:08.834Z,65.40
2023-02-21T17:44:47.120Z,65.40
2023-02-21T17:46:21.784Z,65.50
2023-02-21T17:47:55.335Z,65.50
2023-02-21T17:49:29.872Z,65.50
2023-02-21T17:51:08.198Z,65.40
2023-02-21T17:52:41.858Z,65.40
2023-02-21T17:54:15.633Z,65.40
2023-02-21T17:55:49.005Z,65.40
2023-02-21T17:57:22.553Z,65.40
2023-02-21T17:58:57.213Z,65.40
2023-02-21T18:00:34.228Z,65.40
2023-02-21T18:02:08.921Z,65.50
2023-02-21T18:03:42.066Z,65.40
2023-02-21T18:05:15.405Z,65.30
2023-02-21T18:06:49.907Z,65.30
2023-02-21T18:08:23.333Z,65.30
2023-02-21T18:09:56.548Z,65.20
2023-02-21T18:11:30.031Z,65.20
2023-02-21T18:13:03.183Z,65.30
2023-02-21T18:14:36.356Z,65.30
2023-02-21T18:16:10.129Z,65.40
2023-02-21T18:17:43.316Z,65.30
2023-02-21T18:19:16.911Z,65.30
2023-02-21T18:20:50.080Z,65.30
2023-02-21T18:22:24.581Z,65.20
2023-02-21T18:23:57.772Z,65.30
2023-02-21T18:25:31.030Z,65.40
2023-02-21T18:27:04.547Z,65.50
2023-02-21T18:28:38.161Z,65.50
2023-02-21T18:30:12.651Z,65.60
2023-02-21T18:31:45.801Z,65.60
2023-02-21T18:33:19.438Z,65.60
2023-02-21T18:34:52.836Z,65.60
2023-02-21T18:36:26.502Z,65.70
2023-02-21T18:38:01.015Z,65.70
2023-02-21T18:39:34.181Z,65.70
2023-02-21T18:41:12.176Z,65.60
2023-02-21T18:42:47.506Z,65.70
2023-02-21T18:44:20.936Z,65.70
2023-02-21T18:45:57.139Z,65.60
2023-02-21T18:47:31.890Z,65.70
2023-02-21T18:49:05.921Z,65.60
2023-02-21T18:50:39.119Z,65.60
2023-02-21T18:52:13.064Z,65.60
2023-02-21T18:53:48.268Z,65.60
2023-02-21T18:55:21.585Z,65.70
2023-02-21T18:56:54.744Z,65.60
2023-02-21T18:58:28.013Z,65.60
2023-02-21T19:00:01.182Z,65.70
2023-02-21T19:01:34.498Z,65.60
2023-02-21T19:03:10.468Z,65.60
2023-02-21T19:04:44.197Z,65.60
2023-02-21T19:06:20.558Z,65.50
2023-02-21T19:07:54.536Z,65.50
2023-02-21T19:09:28.952Z,65.50
2023-02-21T19:11:02.198Z,65.50
2023-02-21T19:12:35.488Z,65.50
2023-02-21T19:14:08.777Z,65.50
2023-02-21T19:15:42.216Z,65.60
2023-02-21T19:17:15.551Z,65.60
2023-02-21T19:18:51.271Z,65.70
2023-02-21T19:20:24.452Z,65.60
2023-02-21T19:21:57.879Z,65.60
2023-02-21T19:23:31.016Z,65.70
2023-02-21T19:25:06.801Z,65.60
2023-02-21T19:26:42.990Z,65.50
2023-02-21T19:28:16.617Z,65.60
2023-02-21T19:29:49.956Z,65.60
2023-02-21T19:31:23.513Z,65.60
2023-02-21T19:32:59.038Z,65.70
2023-02-21T19:34:32.331Z,65.70
2023-02-21T19:36:06.729Z,65.70
2023-02-21T19:37:40.201Z,65.70
2023-02-21T19:39:13.680Z,65.70
2023-02-21T19:40:48.252Z,65.70
2023-02-21T19:42:22.115Z,65.70
2023-02-21T19:43:56.041Z,65.80
2023-02-21T19:45:29.659Z,65.80
2023-02-21T19:47:02.905Z,65.80
2023-02-21T19:48:36.020Z,65.70
2023-02-21T19:50:09.973Z,65.90
2023-02-21T19:51:44.411Z,65.80
2023-02-21T19:53:18.065Z,65.70
2023-02-21T19:54:51.303Z,65.80
2023-02-21T19:56:25.841Z,65.70
2023-02-21T19:57:58.982Z,65.70
2023-02-21T19:59:33.877Z,65.80
2023-02-21T20:01:07.857Z,65.80
2023-02-21T20:02:41.258Z,65.80
2023-02-21T20:04:17.588Z,65.80
2023-02-21T20:05:52.263Z,65.70
2023-02-21T20:07:25.451Z,65.60
2023-02-21T20:08:58.705Z,65.60
2023-02-21T20:10:32.028Z,65.70
2023-02-21T20:12:07.593Z,65.70
2023-02-21T20:13:42.003Z,65.80
2023-02-21T20:15:15.407Z,65.80
2023-02-21T20:16:48.688Z,65.90
2023-02-21T20:18:21.832Z,66.00
2023-02-21T20:19:54.929Z,66.00
2023-02-21T20:21:30.948Z,66.10
2023-02-21T20:23:04.541Z,66.30
2023-02-21T20:24:38.116Z,66.30
2023-02-21T20:26:12.898Z,66.30
2023-02-21T20:27:47.368Z,66.30
2023-02-21T20:29:22.029Z,66.40
2023-02-21T20:30:55.201Z,66.30
2023-02-21T20:32:28.822Z,66.20
2023-02-21T20:34:02.764Z,66.10
2023-02-21T20:35:36.064Z,66.10
2023-02-21T20:37:10.960Z,66.20
2023-02-21T20:38:43.910Z,66.20
2023-02-21T20:40:18.708Z,66.30
2023-02-21T20:41:52.022Z,66.20
2023-02-21T20:43:27.279Z,66.20
2023-02-21T20:45:01.876Z,66.30
2023-02-21T20:46:37.227Z,66.30
2023-02-21T20:48:11.602Z,66.30
2023-02-21T20:49:46.839Z,66.20
2023-02-21T20:51:30.394Z,66.30
2023-02-21T20:53:03.635Z,66.30
2023-02-21T20:54:37.107Z,66.30
2023-02-21T20:56:11.286Z,66.30
2023-02-21T20:57:44.612Z,66.50
2023-02-21T20:59:22.879Z,66.50
2023-02-21T21:00:56.315Z,66.70
2023-02-21T21:02:29.616Z,66.70
2023-02-21T21:04:05.148Z,66.70
2023-02-21T21:05:38.483Z,66.60
2023-02-21T21:07:15.310Z,66.60
2023-02-21T21:08:48.900Z,66.70
2023-02-21T21:10:22.216Z,66.80
2023-02-21T21:12:00.708Z,66.80
2023-02-21T21:13:33.848Z,67.00
2023-02-21T21:15:10.446Z,67.00
2023-02-21T21:16:43.886Z,67.10
2023-02-21T21:18:17.109Z,67.20
2023-02-21T21:19:50.941Z,67.20
2023-02-21T21:21:28.859Z,67.20
2023-02-21T21:23:02.009Z,67.30